This is the latest recevied weather packets stored in our database for station/object YO3FVR-13. If no packets are shown the sender has not sent any weather packets the latest 10 day(s).
| Time | Temp. | Humidity | Pressure | Rain* | Wind** | Luminosity | Snow |
|---|---|---|---|---|---|---|---|
| 1778244532 | 22.78° C | 58% | 1011.7 hPa | 0 mm | - | - | - |
| 1778243632 | 23.33° C | 57% | 1012 hPa | 0 mm | - | - | - |
| 1778242732 | 23.33° C | 57% | 1012.1 hPa | 0 mm | - | - | - |
| 1778241802 | 24.44° C | 52% | 1011.8 hPa | 0 mm | - | - | - |
| 1778240902 | 23.89° C | 57% | 1012.3 hPa | 0 mm | - | - | - |
| 1778240002 | 22.78° C | 60% | 1012.3 hPa | 0 mm | - | - | - |
| 1778239072 | 23.33° C | 61% | 1012.3 hPa | 0 mm | - | - | - |
| 1778238142 | 23.89° C | 57% | 1012.5 hPa | 0 mm | - | - | - |
| 1778237213 | 23.33° C | 60% | 1012.7 hPa | 0 mm | - | - | - |
| 1778236282 | 23.89° C | 60% | 1012.7 hPa | 0 mm | - | - | - |
| 1778235352 | 22.78° C | 60% | 1012.9 hPa | 0 mm | - | - | - |
| 1778234452 | 23.33° C | 61% | 1013.1 hPa | 0 mm | - | - | - |
| 1778233522 | 22.22° C | 62% | 1013.2 hPa | 0 mm | - | - | - |
| 1778232622 | 21.67° C | 67% | 1013.4 hPa | 0 mm | - | - | - |
| 1778231692 | 20° C | 70% | 1013.1 hPa | 0 mm | - | - | - |
| 1778230792 | 20.56° C | 69% | 1013.6 hPa | 0 mm | - | - | - |
| 1778229862 | 20.56° C | 71% | 1013.4 hPa | 0 mm | - | - | - |
| 1778228962 | 19.44° C | 74% | 1013.2 hPa | 0 mm | - | - | - |
| 1778228032 | 20° C | 71% | 1013.3 hPa | 0 mm | - | - | - |
| 1778227132 | 19.44° C | 74% | 1013.5 hPa | 0 mm | - | - | - |
| 1778226202 | 18.33° C | 76% | 1013.4 hPa | 0 mm | - | - | - |
| 1778225302 | 18.33° C | 76% | 1013.6 hPa | 0 mm | - | - | - |
| 1778224402 | 18.89° C | 77% | 1013.4 hPa | 0 mm | - | - | - |
| 1778223502 | 18.89° C | 74% | 1013.6 hPa | 0 mm | - | - | - |
| 1778222602 | 18.89° C | 76% | 1013.4 hPa | 0 mm | - | - | - |
* Rain latest hour (hover to see other rain measurements)
** Current wind speed in m/s (hover to see current wind gust speed)